createdAt,value
2017-09-19T00:04:15.447Z,101058.53
2017-09-19T00:09:18.929Z,101054.53
2017-09-19T00:14:20.933Z,101055.83
2017-09-19T00:19:23.085Z,101060.71
2017-09-19T00:24:25.119Z,101055.24
2017-09-19T00:29:27.127Z,101065.06
2017-09-19T00:34:29.134Z,101062.86
2017-09-19T00:39:31.631Z,101056.92
2017-09-19T00:44:33.673Z,101059.55
2017-09-19T00:49:35.744Z,101061.30
2017-09-19T00:54:39.129Z,101061.18
2017-09-19T00:59:42.353Z,101058.03
2017-09-19T01:04:44.456Z,101060.50
2017-09-19T01:09:46.618Z,101044.25
2017-09-19T01:14:48.716Z,101050.49
2017-09-19T01:19:50.751Z,101052.40
2017-09-19T01:24:52.806Z,101051.38
2017-09-19T01:29:54.899Z,101059.48
2017-09-19T01:34:56.947Z,101059.84
2017-09-19T01:39:59.007Z,101056.67
2017-09-19T01:45:01.069Z,101061.20
2017-09-19T01:50:03.254Z,101064.20
2017-09-19T01:55:05.344Z,101061.66
2017-09-19T02:00:07.456Z,101063.80
2017-09-19T02:05:09.527Z,101065.47
2017-09-19T02:10:11.521Z,101060.74
2017-09-19T02:15:14.351Z,101062.42
2017-09-19T02:20:16.428Z,101053.17
2017-09-19T02:25:18.415Z,101048.62
2017-09-19T02:30:20.498Z,101060.29
2017-09-19T02:35:22.541Z,101052.23
2017-09-19T02:40:24.662Z,101047.88
2017-09-19T02:45:26.652Z,101058.95
2017-09-19T02:50:28.658Z,101061.03
2017-09-19T02:55:31.555Z,101058.89
2017-09-19T03:00:33.556Z,101066.08
2017-09-19T03:05:35.571Z,101061.05
2017-09-19T03:10:37.627Z,101060.70
2017-09-19T03:15:39.908Z,101052.44
2017-09-19T03:20:43.020Z,101051.98
2017-09-19T03:25:45.123Z,101047.64
2017-09-19T03:30:47.158Z,101049.66
2017-09-19T03:35:53.820Z,101042.78
2017-09-19T03:40:56.167Z,101048.44
2017-09-19T03:45:58.191Z,101049.32
2017-09-19T03:51:00.208Z,101051.96
2017-09-19T03:56:02.290Z,101053.63
2017-09-19T04:01:07.694Z,101054.02
2017-09-19T04:06:09.736Z,101046.49
2017-09-19T04:11:11.851Z,101050.22
2017-09-19T04:16:14.617Z,101050.95
2017-09-19T04:21:17.398Z,101052.77
2017-09-19T04:26:19.412Z,101061.45
2017-09-19T04:31:25.220Z,101064.22
2017-09-19T04:36:27.332Z,101061.39
2017-09-19T04:41:29.479Z,101061.53
2017-09-19T04:46:31.647Z,101066.86
2017-09-19T04:51:33.703Z,101075.05
2017-09-19T04:56:35.704Z,101079.16
2017-09-19T05:01:41.505Z,101079.17
2017-09-19T05:06:44.730Z,101087.34
2017-09-19T05:11:47.417Z,101091.89
2017-09-19T05:16:50.628Z,101091.88
2017-09-19T05:21:59.133Z,101090.94
2017-09-19T05:27:01.183Z,101092.84
2017-09-19T05:32:03.322Z,101086.97
2017-09-19T05:37:05.486Z,101099.27
2017-09-19T05:42:07.513Z,101105.27
2017-09-19T05:47:09.541Z,101103.67
2017-09-19T05:52:12.269Z,101111.17
2017-09-19T05:57:14.428Z,101116.31
2017-09-19T06:02:16.573Z,101115.06
2017-09-19T06:07:18.572Z,101119.09
2017-09-19T06:12:20.639Z,101126.67
2017-09-19T06:17:23.110Z,101129.30
2017-09-19T06:22:25.096Z,101133.32
2017-09-19T06:27:27.078Z,101138.36
2017-09-19T06:32:29.136Z,101144.61
2017-09-19T06:37:31.211Z,101143.77
2017-09-19T06:42:33.178Z,101133.93
2017-09-19T06:47:35.175Z,101136.00
2017-09-19T06:52:38.071Z,101137.43
2017-09-19T06:57:40.076Z,101141.14
2017-09-19T07:02:42.781Z,101147.78
2017-09-19T07:07:44.785Z,101145.20
2017-09-19T07:12:46.853Z,101151.59
2017-09-19T07:17:48.969Z,101168.20
2017-09-19T07:22:51.001Z,101176.02
2017-09-19T07:27:52.972Z,101177.36
2017-09-19T07:32:55.649Z,101182.63
2017-09-19T07:37:57.671Z,101181.98
2017-09-19T07:42:59.679Z,101188.83
2017-09-19T07:48:03.894Z,101192.76
2017-09-19T07:53:05.878Z,101187.14
2017-09-19T07:58:07.889Z,101195.16
2017-09-19T08:03:09.880Z,101200.53
2017-09-19T08:08:11.871Z,101203.97
2017-09-19T08:13:13.840Z,101211.02
2017-09-19T08:18:15.880Z,101212.72
2017-09-19T08:23:17.878Z,101211.69
2017-09-19T08:28:20.601Z,101217.84
2017-09-19T08:33:22.580Z,101218.59
2017-09-19T08:38:24.583Z,101229.06
2017-09-19T08:43:26.547Z,101228.00
2017-09-19T08:48:28.516Z,101226.02
2017-09-19T08:53:30.603Z,101230.28
2017-09-19T08:58:32.568Z,101220.58
2017-09-19T09:03:34.548Z,101231.48
2017-09-19T09:08:37.723Z,101233.80
2017-09-19T09:13:39.651Z,101232.72
2017-09-19T09:18:41.602Z,101235.77
2017-09-19T09:23:43.614Z,101242.54
2017-09-19T09:28:46.423Z,101240.83
2017-09-19T09:33:48.453Z,101253.70
2017-09-19T09:38:50.935Z,101253.31
2017-09-19T09:43:52.901Z,101239.16
2017-09-19T09:48:54.908Z,101243.70
2017-09-19T09:53:57.241Z,101245.28
2017-09-19T09:58:59.977Z,101257.27
2017-09-19T10:04:02.711Z,101252.22
2017-09-19T10:09:05.167Z,101255.57
2017-09-19T10:14:07.121Z,101249.54
2017-09-19T10:19:09.133Z,101249.66
2017-09-19T10:24:11.150Z,101242.74
2017-09-19T10:29:13.175Z,101239.52
2017-09-19T10:34:15.222Z,101242.30
2017-09-19T10:39:17.597Z,101248.05
2017-09-19T10:44:19.671Z,101253.30
2017-09-19T10:49:23.467Z,101253.20
2017-09-19T10:54:25.798Z,101249.31
2017-09-19T10:59:28.565Z,101242.27
2017-09-19T11:04:36.807Z,101231.66
2017-09-19T11:09:44.879Z,101236.43
2017-09-19T11:14:50.783Z,101221.70
2017-09-19T11:19:58.011Z,101238.04
2017-09-19T11:25:00.007Z,101239.03
2017-09-19T11:30:05.579Z,101234.72
2017-09-19T11:35:07.507Z,101243.05
2017-09-19T11:40:10.182Z,101243.01
2017-09-19T11:45:18.372Z,101237.42
2017-09-19T11:50:20.729Z,101240.11
2017-09-19T11:55:22.716Z,101243.58
2017-09-19T12:00:24.668Z,101238.72
2017-09-19T12:05:26.640Z,101230.90
2017-09-19T12:10:29.335Z,101242.45
2017-09-19T12:15:31.299Z,101253.46
2017-09-19T12:20:38.389Z,101255.05
2017-09-19T12:25:40.377Z,101258.02
2017-09-19T12:30:43.102Z,101263.19
2017-09-19T12:35:45.154Z,101250.80
2017-09-19T12:40:47.230Z,101268.27
2017-09-19T12:45:51.510Z,101271.89
2017-09-19T12:50:53.471Z,101270.92
2017-09-19T12:55:55.504Z,101270.39
2017-09-19T13:00:57.461Z,101261.83
2017-09-19T13:05:59.415Z,101268.41
2017-09-19T13:11:01.368Z,101268.64
2017-09-19T13:16:04.103Z,101268.77
2017-09-19T13:21:06.065Z,101273.63
2017-09-19T13:26:08.004Z,101266.07
2017-09-19T13:31:28.145Z,101269.15
2017-09-19T13:36:30.187Z,101269.20
2017-09-19T13:41:32.232Z,101267.47
2017-09-19T13:46:34.224Z,101269.45
2017-09-19T13:51:36.340Z,101271.15
2017-09-19T13:56:38.812Z,101278.38
2017-09-19T14:01:41.088Z,101278.63
2017-09-19T14:06:43.409Z,101273.44
2017-09-19T14:11:45.552Z,101270.25
2017-09-19T14:16:48.537Z,101270.30
2017-09-19T14:21:50.673Z,101264.90
2017-09-19T14:26:54.191Z,101260.91
2017-09-19T14:31:56.255Z,101260.17
2017-09-19T14:36:58.198Z,101251.45
2017-09-19T14:42:00.129Z,101255.04
2017-09-19T14:47:02.132Z,101246.77
2017-09-19T14:52:04.096Z,101248.92
2017-09-19T14:57:06.404Z,101246.59
2017-09-19T15:02:08.611Z,101247.67
2017-09-19T15:07:10.548Z,101246.68
2017-09-19T15:12:12.566Z,101242.77
2017-09-19T15:17:17.058Z,101253.66
2017-09-19T15:22:19.161Z,101256.41
2017-09-19T15:27:21.083Z,101258.89
2017-09-19T15:32:29.170Z,101270.41
2017-09-19T15:37:31.341Z,101269.36
2017-09-19T15:42:33.306Z,101272.84
2017-09-19T15:47:35.290Z,101272.66
2017-09-19T15:52:37.272Z,101274.09
2017-09-19T15:57:39.385Z,101274.08
2017-09-19T16:02:41.394Z,101268.50
2017-09-19T16:07:43.401Z,101272.19
2017-09-19T16:12:45.431Z,101276.12
2017-09-19T16:17:47.588Z,101279.94
2017-09-19T16:22:49.555Z,101287.27
2017-09-19T16:27:52.319Z,101289.09
2017-09-19T16:32:54.265Z,101298.34
2017-09-19T16:37:56.312Z,101299.55
2017-09-19T16:42:58.326Z,101302.17
2017-09-19T16:48:00.316Z,101312.59
2017-09-19T16:53:02.362Z,101316.98
2017-09-19T16:58:05.126Z,101325.39
2017-09-19T17:03:08.167Z,101325.65
2017-09-19T17:08:10.268Z,101327.11
2017-09-19T17:13:12.364Z,101332.13
2017-09-19T17:18:14.601Z,101343.14
2017-09-19T17:23:16.797Z,101348.63
2017-09-19T17:28:24.044Z,101351.92
2017-09-19T17:33:26.029Z,101354.12
2017-09-19T17:38:28.023Z,101357.84
2017-09-19T17:43:30.036Z,101363.89
2017-09-19T17:48:32.017Z,101343.80
2017-09-19T17:53:34.005Z,101371.74
2017-09-19T17:58:36.008Z,101378.89
2017-09-19T18:03:43.732Z,101380.03
2017-09-19T18:08:49.069Z,101378.52
2017-09-19T18:13:51.517Z,101386.73
2017-09-19T18:18:53.708Z,101386.66
2017-09-19T18:23:56.603Z,101390.36
2017-09-19T18:28:58.752Z,101389.63
2017-09-19T18:34:01.332Z,101389.37
2017-09-19T18:39:03.947Z,101397.12
2017-09-19T18:44:05.943Z,101408.31
2017-09-19T18:49:07.972Z,101409.95
2017-09-19T18:54:10.001Z,101407.38
2017-09-19T18:59:12.760Z,101404.73
2017-09-19T19:04:14.883Z,101407.42
2017-09-19T19:09:20.560Z,101402.50
2017-09-19T19:14:27.838Z,101402.55
2017-09-19T19:19:34.631Z,101408.94
2017-09-19T19:24:37.078Z,101422.36
2017-09-19T19:29:39.069Z,101432.52
2017-09-19T19:34:43.941Z,101423.73
2017-09-19T19:39:46.227Z,101418.36
2017-09-19T19:44:48.926Z,101420.81
2017-09-19T19:49:51.007Z,101429.17
2017-09-19T19:54:53.021Z,101434.74
2017-09-19T19:59:56.430Z,101434.95
2017-09-19T20:04:58.555Z,101425.00
2017-09-19T20:10:00.593Z,101439.52
2017-09-19T20:15:02.581Z,101434.12
2017-09-19T20:20:04.705Z,101438.03
2017-09-19T20:25:06.721Z,101437.12
2017-09-19T20:30:08.693Z,101433.34
2017-09-19T20:35:10.648Z,101435.70
2017-09-19T20:40:13.366Z,101439.53
2017-09-19T20:45:15.413Z,101440.34
2017-09-19T20:50:17.534Z,101436.39
2017-09-19T20:55:19.517Z,101436.87
2017-09-19T21:00:21.510Z,101442.59
2017-09-19T21:05:30.173Z,101440.41
2017-09-19T21:10:38.355Z,101436.70
2017-09-19T21:15:46.376Z,101442.92
2017-09-19T21:20:48.484Z,101451.00
2017-09-19T21:25:50.484Z,101446.20
2017-09-19T21:30:52.477Z,101449.34
2017-09-19T21:35:54.468Z,101446.31
2017-09-19T21:40:56.461Z,101438.34
2017-09-19T21:45:58.433Z,101440.32
2017-09-19T21:51:00.411Z,101440.61
2017-09-19T21:56:02.416Z,101437.47
2017-09-19T22:01:05.221Z,101435.70
2017-09-19T22:06:07.325Z,101434.67
2017-09-19T22:11:09.383Z,101427.63
2017-09-19T22:16:11.370Z,101420.91
2017-09-19T22:21:13.634Z,101427.84
2017-09-19T22:26:16.099Z,101422.92
2017-09-19T22:31:18.635Z,101437.43
2017-09-19T22:36:20.719Z,101430.70
2017-09-19T22:41:23.468Z,101433.56
2017-09-19T22:46:25.451Z,101429.62
2017-09-19T22:51:28.139Z,101427.48
2017-09-19T22:56:30.160Z,101430.20
2017-09-19T23:01:32.096Z,101426.01
2017-09-19T23:06:34.450Z,101427.91
2017-09-19T23:11:36.513Z,101428.84
2017-09-19T23:16:38.578Z,101424.95
2017-09-19T23:21:40.511Z,101429.87
2017-09-19T23:26:43.251Z,101429.47
2017-09-19T23:31:45.276Z,101430.23
2017-09-19T23:36:49.055Z,101429.53
2017-09-19T23:41:51.156Z,101418.98
2017-09-19T23:46:53.144Z,101426.26
2017-09-19T23:51:55.066Z,101432.40
2017-09-19T23:56:57.811Z,101437.09
